createdAt,value
2018-12-30T00:00:41.535Z,51.60
2018-12-30T00:03:08.202Z,46.77
2018-12-30T00:05:34.880Z,50.90
2018-12-30T00:08:01.649Z,53.40
2018-12-30T00:10:28.512Z,49.87
2018-12-30T00:12:55.297Z,47.58
2018-12-30T00:15:21.997Z,48.17
2018-12-30T00:17:48.746Z,47.88
2018-12-30T00:20:15.496Z,51.17
2018-12-30T00:22:42.272Z,48.00
2018-12-30T00:25:09.034Z,51.28
2018-12-30T00:27:35.785Z,45.40
2018-12-30T00:30:02.555Z,53.02
2018-12-30T00:32:29.304Z,48.17
2018-12-30T00:34:56.038Z,53.20
2018-12-30T00:37:22.808Z,52.88
2018-12-30T00:39:49.580Z,51.10
2018-12-30T00:42:16.348Z,46.77
2018-12-30T00:44:43.085Z,46.40
2018-12-30T00:47:09.868Z,49.10
2018-12-30T00:49:36.625Z,51.28
2018-12-30T00:52:03.384Z,49.73
2018-12-30T00:54:30.132Z,37.80
2018-12-30T00:56:56.889Z,46.20
2018-12-30T00:59:23.644Z,43.30
2018-12-30T01:01:50.414Z,45.30
2018-12-30T01:04:17.181Z,47.83
2018-12-30T01:06:43.929Z,34.63
2018-12-30T01:09:10.677Z,36.90
2018-12-30T01:11:37.448Z,40.37
2018-12-30T01:14:04.221Z,47.73
2018-12-30T01:16:30.984Z,41.28
2018-12-30T01:18:58.336Z,41.73
2018-12-30T01:21:25.397Z,42.93
2018-12-30T01:23:51.859Z,38.80
2018-12-30T01:26:18.617Z,40.75
2018-12-30T01:28:45.365Z,36.53
2018-12-30T01:31:12.168Z,43.38
2018-12-30T01:33:38.936Z,43.87
2018-12-30T01:36:05.700Z,42.60
2018-12-30T01:38:32.440Z,45.30
2018-12-30T01:40:59.224Z,45.60
2018-12-30T01:43:25.968Z,44.85
2018-12-30T01:45:52.728Z,39.53
2018-12-30T01:48:19.452Z,41.13
2018-12-30T01:50:46.225Z,39.60
2018-12-30T01:53:12.978Z,41.10
2018-12-30T01:55:39.743Z,43.23
2018-12-30T01:58:06.489Z,42.17
2018-12-30T02:00:33.257Z,37.20
2018-12-30T02:03:00.020Z,37.88
2018-12-30T02:05:26.776Z,35.43
2018-12-30T02:07:53.528Z,31.87
2018-12-30T02:10:20.268Z,35.80
2018-12-30T02:12:47.028Z,31.93
2018-12-30T02:15:13.761Z,35.55
2018-12-30T02:17:40.525Z,35.77
2018-12-30T02:20:07.272Z,35.40
2018-12-30T02:22:34.044Z,37.43
2018-12-30T02:25:00.784Z,35.17
2018-12-30T02:27:27.600Z,32.47
2018-12-30T02:29:54.332Z,37.15
2018-12-30T02:32:21.162Z,29.33
2018-12-30T02:34:47.856Z,33.83
2018-12-30T02:37:14.609Z,34.85
2018-12-30T02:39:41.360Z,33.80
2018-12-30T02:42:08.128Z,32.17
2018-12-30T02:44:34.907Z,33.53
2018-12-30T02:47:01.633Z,31.50
2018-12-30T02:49:28.373Z,32.00
2018-12-30T02:51:55.151Z,31.43
2018-12-30T02:54:21.896Z,32.83
2018-12-30T02:56:48.676Z,29.50
2018-12-30T02:59:15.414Z,27.25
2018-12-30T03:01:42.178Z,29.40
2018-12-30T03:04:08.974Z,29.25
2018-12-30T03:06:35.738Z,26.43
2018-12-30T03:09:02.556Z,28.65
2018-12-30T03:11:29.309Z,28.30
2018-12-30T03:13:56.081Z,29.07
2018-12-30T03:16:22.816Z,25.93
2018-12-30T03:18:49.584Z,28.13
2018-12-30T03:21:16.321Z,25.10
2018-12-30T03:23:43.093Z,20.23
2018-12-30T03:26:09.835Z,23.80
2018-12-30T03:28:36.605Z,25.20
2018-12-30T03:31:03.342Z,23.80
2018-12-30T03:33:30.096Z,21.90
2018-12-30T03:35:56.824Z,19.60
2018-12-30T03:38:23.619Z,21.40
2018-12-30T03:40:50.357Z,21.73
2018-12-30T03:43:17.120Z,23.10
2018-12-30T03:45:43.932Z,22.43
2018-12-30T03:48:10.679Z,24.70
2018-12-30T03:50:37.428Z,21.60
2018-12-30T03:53:04.180Z,18.60
2018-12-30T03:55:30.904Z,19.17
2018-12-30T03:57:57.705Z,19.80
2018-12-30T04:00:24.427Z,19.13
2018-12-30T04:02:51.171Z,23.97
2018-12-30T04:05:17.901Z,26.20
2018-12-30T04:07:44.664Z,21.70
2018-12-30T04:10:11.396Z,27.13
2018-12-30T04:12:38.144Z,24.73
2018-12-30T04:15:04.909Z,27.70
2018-12-30T04:17:31.687Z,29.57
2018-12-30T04:19:58.469Z,27.57
2018-12-30T04:22:25.192Z,31.40
2018-12-30T04:24:51.944Z,30.43
2018-12-30T04:27:18.702Z,29.30
2018-12-30T04:29:45.477Z,28.10
2018-12-30T04:32:12.228Z,26.90
2018-12-30T04:34:39.000Z,30.87
2018-12-30T04:37:05.729Z,29.70
2018-12-30T04:39:32.502Z,29.83
2018-12-30T04:41:59.237Z,26.90
2018-12-30T04:44:25.992Z,26.93
2018-12-30T04:46:52.741Z,27.60
2018-12-30T04:49:19.505Z,27.73
2018-12-30T04:51:46.245Z,23.20
2018-12-30T04:54:12.993Z,25.20
2018-12-30T04:56:39.730Z,24.10
2018-12-30T04:59:06.501Z,25.30
2018-12-30T05:01:33.355Z,32.53
2018-12-30T05:03:59.987Z,34.10
2018-12-30T05:06:26.729Z,30.30
2018-12-30T05:08:53.500Z,29.00
2018-12-30T05:11:20.255Z,29.47
2018-12-30T05:13:47.012Z,29.50
2018-12-30T05:16:13.744Z,28.30
2018-12-30T05:18:40.502Z,29.03
2018-12-30T05:21:07.232Z,29.47
2018-12-30T05:23:34.004Z,27.00
2018-12-30T05:26:00.732Z,26.83
2018-12-30T05:28:27.488Z,29.87
2018-12-30T05:30:54.245Z,26.80
2018-12-30T05:33:20.970Z,26.10
2018-12-30T05:35:47.739Z,27.53
2018-12-30T05:38:14.485Z,25.77
2018-12-30T05:40:41.232Z,26.57
2018-12-30T05:43:07.986Z,27.13
2018-12-30T05:45:34.761Z,24.47
2018-12-30T05:48:01.487Z,31.50
2018-12-30T05:50:28.312Z,29.47
2018-12-30T05:52:55.062Z,35.38
2018-12-30T05:55:21.801Z,36.63
2018-12-30T05:57:48.550Z,35.07
2018-12-30T06:00:15.304Z,38.07
2018-12-30T06:02:42.044Z,36.10
2018-12-30T06:05:08.877Z,31.97
2018-12-30T06:07:35.540Z,34.53
2018-12-30T06:10:02.320Z,32.73
2018-12-30T06:12:29.064Z,31.97
2018-12-30T06:14:55.822Z,30.63
2018-12-30T06:17:22.561Z,26.57
2018-12-30T06:19:49.312Z,29.93
2018-12-30T06:22:16.056Z,31.33
2018-12-30T06:24:42.812Z,30.10
2018-12-30T06:27:09.533Z,30.40
2018-12-30T06:29:36.276Z,27.00
2018-12-30T06:32:03.010Z,29.67
2018-12-30T06:34:29.766Z,32.00
2018-12-30T06:36:56.548Z,28.73
2018-12-30T06:39:23.314Z,29.00
2018-12-30T06:41:50.104Z,26.03
2018-12-30T06:44:16.845Z,29.57
2018-12-30T06:46:43.604Z,29.80
2018-12-30T06:49:10.659Z,24.73
2018-12-30T06:51:37.103Z,24.67
2018-12-30T06:54:03.860Z,25.00
2018-12-30T06:56:30.621Z,24.33
2018-12-30T06:58:57.352Z,23.33
2018-12-30T07:01:24.118Z,21.67
2018-12-30T07:03:50.961Z,25.13
2018-12-30T07:06:17.756Z,24.50
2018-12-30T07:08:44.501Z,25.40
2018-12-30T07:11:11.244Z,28.90
2018-12-30T07:13:37.996Z,26.27
2018-12-30T07:16:04.768Z,23.77
2018-12-30T07:18:31.509Z,29.17
2018-12-30T07:20:58.295Z,26.70
2018-12-30T07:23:25.029Z,27.20
2018-12-30T07:25:51.787Z,28.60
2018-12-30T07:28:18.571Z,28.90
2018-12-30T07:30:45.392Z,29.53
2018-12-30T07:33:12.132Z,28.30
2018-12-30T07:35:38.957Z,29.67
2018-12-30T07:38:05.684Z,26.60
2018-12-30T07:40:32.461Z,27.03
2018-12-30T07:42:59.206Z,22.43
2018-12-30T07:45:25.968Z,32.70
2018-12-30T07:47:52.712Z,27.60
2018-12-30T07:50:19.483Z,23.67
2018-12-30T07:52:46.215Z,25.23
2018-12-30T07:55:13.546Z,23.77
2018-12-30T07:57:40.858Z,22.17
2018-12-30T08:00:07.590Z,31.47
2018-12-30T08:02:34.344Z,42.33
2018-12-30T08:05:01.100Z,34.13
2018-12-30T08:07:27.879Z,29.80
2018-12-30T08:09:54.612Z,27.13
2018-12-30T08:12:21.387Z,26.17
2018-12-30T08:14:48.128Z,24.10
2018-12-30T08:17:14.904Z,28.10
2018-12-30T08:19:41.640Z,30.53
2018-12-30T08:22:08.432Z,29.90
2018-12-30T08:24:35.180Z,25.43
2018-12-30T08:27:01.950Z,28.60
2018-12-30T08:29:28.696Z,29.03
2018-12-30T08:31:55.444Z,26.57
2018-12-30T08:34:22.184Z,33.63
2018-12-30T08:36:48.961Z,30.37
2018-12-30T08:39:15.718Z,27.40
2018-12-30T08:41:42.492Z,28.50
2018-12-30T08:44:09.236Z,33.73
2018-12-30T08:46:36.005Z,30.10
2018-12-30T08:49:02.745Z,27.97
2018-12-30T08:51:29.500Z,27.83
2018-12-30T08:53:56.377Z,29.80
2018-12-30T08:56:23.136Z,29.50
2018-12-30T08:58:49.880Z,29.60
2018-12-30T09:01:16.632Z,26.70
2018-12-30T09:03:43.369Z,28.37
2018-12-30T09:06:10.148Z,31.50
2018-12-30T09:08:36.884Z,30.67
2018-12-30T09:11:03.645Z,35.10
2018-12-30T09:13:30.397Z,34.07
2018-12-30T09:15:57.157Z,27.47
2018-12-30T09:18:23.912Z,27.77
2018-12-30T09:20:50.644Z,32.80
2018-12-30T09:23:19.216Z,30.20
2018-12-30T09:25:44.229Z,26.70
2018-12-30T09:28:10.985Z,29.43
2018-12-30T09:30:37.717Z,24.57
2018-12-30T09:33:04.508Z,25.47
2018-12-30T09:35:31.251Z,25.90
2018-12-30T09:37:58.004Z,26.63
2018-12-30T09:40:24.784Z,26.20
2018-12-30T09:42:51.544Z,29.67
2018-12-30T09:45:18.309Z,25.20
2018-12-30T09:47:45.075Z,29.07
2018-12-30T09:50:11.818Z,30.80
2018-12-30T09:52:38.577Z,36.00
2018-12-30T09:55:05.313Z,31.12
2018-12-30T09:57:32.078Z,26.07
2018-12-30T09:59:58.820Z,25.20
2018-12-30T10:02:25.701Z,31.40
2018-12-30T10:04:52.436Z,33.20
2018-12-30T10:07:19.220Z,27.70
2018-12-30T10:09:45.964Z,28.47
2018-12-30T10:12:12.757Z,24.43
2018-12-30T10:14:39.501Z,26.30
2018-12-30T10:17:06.249Z,21.23
2018-12-30T10:19:33.001Z,23.63
2018-12-30T10:21:59.764Z,25.97
2018-12-30T10:24:26.504Z,27.10
2018-12-30T10:26:53.272Z,22.50
2018-12-30T10:29:20.023Z,28.63
2018-12-30T10:31:46.797Z,25.63
2018-12-30T10:34:13.536Z,24.80
2018-12-30T10:36:40.301Z,28.33
2018-12-30T10:39:07.081Z,27.90
2018-12-30T10:41:33.852Z,22.03
2018-12-30T10:44:00.629Z,22.57
2018-12-30T10:46:27.400Z,25.63
2018-12-30T10:48:54.169Z,25.40
2018-12-30T10:51:20.908Z,23.57
2018-12-30T10:53:47.693Z,25.23
2018-12-30T10:56:14.436Z,20.57
2018-12-30T10:58:41.188Z,23.93
2018-12-30T11:01:07.948Z,25.30
2018-12-30T11:03:34.717Z,24.63
2018-12-30T11:06:02.476Z,26.23
2018-12-30T11:08:29.240Z,22.60
2018-12-30T11:10:55.980Z,25.17
2018-12-30T11:13:22.800Z,21.37
2018-12-30T11:15:49.680Z,23.17
2018-12-30T11:18:16.435Z,22.95
2018-12-30T11:20:43.252Z,20.67
2018-12-30T11:23:10.012Z,24.20
2018-12-30T11:25:36.770Z,19.07
2018-12-30T11:28:03.523Z,20.60
2018-12-30T11:30:30.265Z,18.77
2018-12-30T11:32:57.048Z,18.47
2018-12-30T11:35:23.797Z,21.37
2018-12-30T11:37:50.588Z,18.13
2018-12-30T11:40:17.341Z,26.27
2018-12-30T11:42:44.100Z,22.80
2018-12-30T11:45:10.844Z,16.57
2018-12-30T11:47:37.893Z,26.10
2018-12-30T11:50:05.377Z,19.57
2018-12-30T11:52:32.124Z,25.72
2018-12-30T11:54:58.920Z,26.60
2018-12-30T11:57:25.649Z,23.23
2018-12-30T11:59:52.405Z,23.50
2018-12-30T12:02:23.963Z,26.60
2018-12-30T12:04:45.921Z,23.77
2018-12-30T12:07:12.660Z,19.63
2018-12-30T12:09:39.425Z,23.53
2018-12-30T12:12:06.176Z,22.53
2018-12-30T12:14:33.036Z,33.33
2018-12-30T12:16:59.780Z,25.23
2018-12-30T12:19:26.628Z,23.53
2018-12-30T12:21:53.381Z,28.40
2018-12-30T12:24:24.309Z,26.13
2018-12-30T12:26:46.888Z,26.37
2018-12-30T12:29:14.100Z,23.87
2018-12-30T12:31:40.857Z,26.63
2018-12-30T12:34:07.620Z,21.00
2018-12-30T12:36:34.384Z,26.13
2018-12-30T12:39:01.172Z,31.30
2018-12-30T12:41:27.957Z,24.70
2018-12-30T12:43:54.708Z,26.30
2018-12-30T12:46:21.457Z,24.90
2018-12-30T12:48:48.225Z,24.83
2018-12-30T12:51:14.959Z,26.73
2018-12-30T12:53:41.726Z,23.10
2018-12-30T12:56:08.467Z,23.40
2018-12-30T12:58:35.224Z,21.50
2018-12-30T13:01:01.965Z,22.10
2018-12-30T13:03:28.716Z,23.87
2018-12-30T13:05:55.477Z,26.27
2018-12-30T13:08:22.213Z,25.37
2018-12-30T13:10:48.988Z,25.47
2018-12-30T13:13:15.732Z,21.43
2018-12-30T13:15:42.624Z,29.50
2018-12-30T13:18:09.381Z,24.27
2018-12-30T13:20:36.127Z,24.23
2018-12-30T13:23:02.881Z,22.43
2018-12-30T13:25:29.637Z,20.50
2018-12-30T13:27:56.368Z,21.70
2018-12-30T13:30:23.116Z,28.87
2018-12-30T13:32:49.868Z,24.97
2018-12-30T13:35:16.681Z,26.03
2018-12-30T13:37:43.432Z,20.77
2018-12-30T13:40:10.195Z,21.73
2018-12-30T13:42:36.932Z,20.83
2018-12-30T13:45:04.120Z,21.40
2018-12-30T13:47:30.864Z,19.83
2018-12-30T13:49:57.624Z,16.57
2018-12-30T13:52:24.372Z,19.70
2018-12-30T13:54:51.132Z,16.90
2018-12-30T13:57:17.876Z,21.03
2018-12-30T13:59:44.639Z,25.50
2018-12-30T14:02:11.411Z,15.70
2018-12-30T14:04:38.177Z,24.33
2018-12-30T14:07:04.936Z,19.60
2018-12-30T14:09:31.712Z,16.47
2018-12-30T14:11:58.452Z,20.10
2018-12-30T14:14:25.208Z,16.00
2018-12-30T14:16:51.964Z,18.00
2018-12-30T14:19:18.735Z,16.93
2018-12-30T14:21:45.480Z,22.60
2018-12-30T14:24:12.241Z,18.47
2018-12-30T14:26:39.001Z,20.30
2018-12-30T14:29:05.767Z,13.20
2018-12-30T14:31:32.517Z,18.90
2018-12-30T14:33:59.258Z,18.50
2018-12-30T14:36:26.097Z,16.80
2018-12-30T14:38:52.888Z,17.30
2018-12-30T14:41:19.628Z,16.90
2018-12-30T14:43:46.387Z,14.57
2018-12-30T14:46:13.136Z,19.90
2018-12-30T14:48:39.912Z,15.40
2018-12-30T14:51:06.660Z,18.67
2018-12-30T14:53:33.413Z,21.57
2018-12-30T14:56:00.184Z,16.90
2018-12-30T14:58:26.925Z,16.10
2018-12-30T15:00:53.686Z,16.63
2018-12-30T15:03:20.444Z,16.90
2018-12-30T15:05:47.200Z,19.40
2018-12-30T15:08:13.941Z,16.93
2018-12-30T15:10:40.697Z,18.30
2018-12-30T15:13:07.448Z,20.03
2018-12-30T15:15:34.213Z,17.30
2018-12-30T15:18:00.994Z,17.23
2018-12-30T15:20:27.814Z,22.27
2018-12-30T15:22:54.501Z,20.43
2018-12-30T15:25:21.241Z,21.73
2018-12-30T15:27:47.997Z,17.47
2018-12-30T15:30:14.760Z,20.03
2018-12-30T15:32:41.531Z,23.37
2018-12-30T15:35:08.260Z,20.60
2018-12-30T15:37:35.023Z,16.77
2018-12-30T15:40:01.785Z,20.10
2018-12-30T15:42:28.564Z,14.70
2018-12-30T15:44:55.321Z,14.30
2018-12-30T15:47:22.086Z,15.03
2018-12-30T15:49:48.829Z,19.30
2018-12-30T15:52:15.587Z,16.70
2018-12-30T15:54:42.328Z,19.60
2018-12-30T15:57:09.104Z,15.90
2018-12-30T15:59:35.853Z,19.50
2018-12-30T16:02:02.717Z,16.87
2018-12-30T16:04:29.453Z,19.37
2018-12-30T16:06:56.219Z,20.13
2018-12-30T16:09:23.037Z,17.97
2018-12-30T16:11:49.780Z,23.50
2018-12-30T16:14:16.548Z,22.93
2018-12-30T16:16:43.301Z,24.72
2018-12-30T16:19:10.060Z,21.30
2018-12-30T16:21:36.818Z,20.40
2018-12-30T16:24:03.570Z,22.30
2018-12-30T16:26:30.337Z,20.03
2018-12-30T16:28:57.075Z,18.07
2018-12-30T16:31:28.044Z,16.67
2018-12-30T16:33:50.563Z,18.00
2018-12-30T16:36:17.344Z,17.03
2018-12-30T16:38:44.088Z,24.00
2018-12-30T16:41:10.832Z,23.12
2018-12-30T16:43:37.617Z,22.50
2018-12-30T16:46:04.361Z,20.50
2018-12-30T16:48:31.137Z,19.30
2018-12-30T16:50:57.887Z,22.13
2018-12-30T16:53:24.640Z,24.20
2018-12-30T16:55:51.416Z,24.83
2018-12-30T16:58:18.216Z,22.40
2018-12-30T17:00:45.006Z,22.70
2018-12-30T17:03:11.752Z,29.97
2018-12-30T17:05:38.557Z,27.73
2018-12-30T17:08:05.321Z,31.57
2018-12-30T17:10:32.073Z,31.90
2018-12-30T17:12:58.846Z,33.20
2018-12-30T17:15:25.585Z,35.10
2018-12-30T17:17:52.349Z,32.03
2018-12-30T17:20:19.096Z,28.77
2018-12-30T17:22:45.855Z,33.10
2018-12-30T17:25:12.585Z,34.33
2018-12-30T17:27:39.344Z,31.53
2018-12-30T17:30:07.658Z,34.60
2018-12-30T17:32:34.431Z,33.53
2018-12-30T17:35:01.174Z,33.70
2018-12-30T17:37:27.949Z,34.30
2018-12-30T17:39:54.739Z,34.47
2018-12-30T17:42:21.526Z,40.00
2018-12-30T17:44:48.305Z,39.23
2018-12-30T17:47:15.125Z,40.63
2018-12-30T17:49:41.882Z,37.07
2018-12-30T17:52:08.678Z,33.27
2018-12-30T17:54:35.412Z,35.50
2018-12-30T17:57:02.192Z,28.97
2018-12-30T17:59:28.976Z,32.17
2018-12-30T18:01:55.718Z,35.23
2018-12-30T18:04:22.504Z,32.40
2018-12-30T18:06:49.485Z,37.70
2018-12-30T18:09:16.278Z,30.37
2018-12-30T18:11:43.072Z,35.43
2018-12-30T18:14:09.827Z,34.10
2018-12-30T18:16:36.580Z,32.77
2018-12-30T18:19:03.333Z,29.43
2018-12-30T18:21:30.118Z,37.40
2018-12-30T18:23:56.901Z,39.37
2018-12-30T18:26:23.646Z,34.47
2018-12-30T18:28:50.408Z,34.77
2018-12-30T18:31:17.168Z,40.60
2018-12-30T18:33:43.940Z,38.57
2018-12-30T18:36:10.689Z,34.47
2018-12-30T18:38:37.548Z,38.33
2018-12-30T18:41:04.408Z,30.90
2018-12-30T18:43:31.176Z,30.50
2018-12-30T18:45:58.016Z,37.60
2018-12-30T18:48:24.776Z,31.17
2018-12-30T18:50:51.517Z,37.50
2018-12-30T18:53:18.368Z,29.83
2018-12-30T18:55:46.516Z,33.70
2018-12-30T18:58:11.833Z,27.40
2018-12-30T19:00:38.577Z,36.70
2018-12-30T19:03:05.341Z,33.23
2018-12-30T19:05:32.195Z,26.60
2018-12-30T19:07:59.345Z,25.77
2018-12-30T19:10:26.213Z,33.00
2018-12-30T19:12:52.960Z,26.50
2018-12-30T19:15:19.743Z,35.38
2018-12-30T19:17:46.490Z,33.55
2018-12-30T19:20:13.361Z,27.80
2018-12-30T19:22:40.104Z,30.50
2018-12-30T19:25:06.877Z,28.00
2018-12-30T19:27:33.653Z,33.23
2018-12-30T19:30:00.426Z,30.67
2018-12-30T19:32:27.176Z,27.83
2018-12-30T19:34:53.954Z,29.57
2018-12-30T19:37:20.700Z,29.10
2018-12-30T19:39:47.464Z,30.83
2018-12-30T19:42:14.210Z,25.83
2018-12-30T19:44:42.049Z,26.40
2018-12-30T19:47:08.803Z,29.13
2018-12-30T19:49:35.557Z,30.10
2018-12-30T19:52:02.361Z,29.77
2018-12-30T19:54:29.138Z,31.60
2018-12-30T19:56:55.880Z,26.37
2018-12-30T19:59:22.657Z,31.80
2018-12-30T20:01:49.435Z,29.57
2018-12-30T20:04:16.206Z,35.80
2018-12-30T20:06:42.944Z,32.77
2018-12-30T20:09:09.705Z,30.63
2018-12-30T20:11:36.468Z,31.20
2018-12-30T20:14:03.237Z,36.47
2018-12-30T20:16:30.037Z,30.97
2018-12-30T20:18:56.789Z,29.13
2018-12-30T20:21:23.542Z,32.77
2018-12-30T20:23:50.337Z,35.47
2018-12-30T20:26:17.073Z,23.50
2018-12-30T20:28:43.824Z,31.07
2018-12-30T20:31:10.594Z,35.77
2018-12-30T20:33:37.328Z,30.90
2018-12-30T20:36:04.088Z,29.90
2018-12-30T20:38:30.820Z,30.03
2018-12-30T20:40:57.607Z,31.03
2018-12-30T20:43:24.371Z,29.23
2018-12-30T20:45:51.209Z,29.37
2018-12-30T20:48:17.958Z,40.50
2018-12-30T20:50:44.720Z,31.40
2018-12-30T20:53:11.473Z,37.50
2018-12-30T20:55:38.229Z,37.43
2018-12-30T20:58:04.993Z,34.63
2018-12-30T21:00:31.763Z,34.90
2018-12-30T21:02:58.516Z,45.00
2018-12-30T21:05:25.290Z,43.37
2018-12-30T21:07:52.157Z,46.53
2018-12-30T21:10:18.926Z,44.93
2018-12-30T21:12:45.695Z,40.33
2018-12-30T21:15:12.449Z,51.20
2018-12-30T21:17:39.199Z,45.07
2018-12-30T21:20:05.979Z,42.17
2018-12-30T21:22:32.724Z,48.53
2018-12-30T21:24:59.489Z,39.20
2018-12-30T21:27:26.224Z,34.83
2018-12-30T21:29:52.996Z,41.67
2018-12-30T21:32:19.734Z,34.83
2018-12-30T21:34:46.488Z,40.80
2018-12-30T21:37:13.233Z,34.60
2018-12-30T21:39:40.005Z,44.17
2018-12-30T21:42:06.775Z,34.03
2018-12-30T21:44:33.564Z,35.20
2018-12-30T21:47:00.356Z,44.13
2018-12-30T21:49:27.092Z,42.53
2018-12-30T21:51:53.857Z,32.93
2018-12-30T21:54:20.608Z,29.73
2018-12-30T21:56:54.585Z,38.93
2018-12-30T21:59:14.134Z,39.10
2018-12-30T22:01:40.897Z,36.53
2018-12-30T22:04:07.649Z,42.83
2018-12-30T22:06:34.424Z,40.97
2018-12-30T22:09:01.167Z,36.30
2018-12-30T22:11:27.937Z,38.23
2018-12-30T22:13:54.705Z,35.00
2018-12-30T22:16:21.598Z,37.63
2018-12-30T22:18:48.332Z,36.97
2018-12-30T22:21:15.097Z,30.57
2018-12-30T22:23:41.852Z,31.53
2018-12-30T22:26:08.616Z,37.70
2018-12-30T22:28:35.355Z,42.88
2018-12-30T22:31:02.133Z,37.07
2018-12-30T22:33:28.873Z,32.90
2018-12-30T22:35:55.652Z,29.40
2018-12-30T22:38:22.390Z,31.73
2018-12-30T22:40:49.152Z,32.93
2018-12-30T22:43:15.900Z,30.03
2018-12-30T22:45:42.648Z,29.80
2018-12-30T22:48:09.420Z,38.73
2018-12-30T22:50:36.180Z,35.93
2018-12-30T22:53:02.945Z,35.40
2018-12-30T22:55:29.700Z,41.80
2018-12-30T22:57:56.465Z,40.53
2018-12-30T23:00:36.892Z,35.70
2018-12-30T23:03:03.700Z,44.27
2018-12-30T23:05:30.392Z,32.03
2018-12-30T23:07:57.164Z,40.63
2018-12-30T23:10:23.921Z,38.83
2018-12-30T23:12:50.724Z,34.23
2018-12-30T23:15:17.460Z,44.83
2018-12-30T23:17:44.237Z,37.93
2018-12-30T23:20:10.976Z,43.23
2018-12-30T23:22:37.768Z,38.97
2018-12-30T23:25:04.648Z,41.00
2018-12-30T23:27:31.484Z,39.80
2018-12-30T23:29:58.247Z,37.97
2018-12-30T23:32:25.113Z,34.23
2018-12-30T23:34:51.873Z,35.63
2018-12-30T23:37:18.644Z,37.93
2018-12-30T23:39:45.383Z,35.43
2018-12-30T23:42:12.224Z,38.13
2018-12-30T23:44:38.980Z,33.77
2018-12-30T23:47:05.744Z,38.10
2018-12-30T23:49:32.496Z,39.33
2018-12-30T23:51:59.256Z,41.17
2018-12-30T23:54:25.993Z,34.70
2018-12-30T23:56:52.737Z,37.50
2018-12-30T23:59:19.465Z,35.10
